createdAt,value
2023-02-04T00:04:55.008Z,6.90
2023-02-04T00:09:53.298Z,6.80
2023-02-04T00:14:51.871Z,7.30
2023-02-04T00:19:52.393Z,7.00
2023-02-04T00:25:15.076Z,7.00
2023-02-04T00:30:15.057Z,7.20
2023-02-04T00:35:15.201Z,7.20
2023-02-04T00:40:14.772Z,7.40
2023-02-04T00:45:14.085Z,7.20
2023-02-04T00:50:12.349Z,7.30
2023-02-04T00:55:12.772Z,7.00
2023-02-04T01:00:12.851Z,7.10
2023-02-04T01:05:11.807Z,7.10
2023-02-04T01:10:12.513Z,7.10
2023-02-04T01:15:11.905Z,7.10
2023-02-04T01:20:12.479Z,7.10
2023-02-04T01:25:12.010Z,6.80
2023-02-04T01:30:15.761Z,6.70
2023-02-04T01:35:14.258Z,6.80
2023-02-04T01:40:14.905Z,6.90
2023-02-04T01:45:13.518Z,6.80
2023-02-04T01:50:14.750Z,6.80
2023-02-04T01:55:18.922Z,6.80
2023-02-04T02:00:19.658Z,7.00
2023-02-04T02:05:22.554Z,6.90
2023-02-04T02:10:23.037Z,7.40
2023-02-04T02:15:22.282Z,7.10
2023-02-04T02:20:23.861Z,7.20
2023-02-04T02:25:23.734Z,7.30
2023-02-04T02:30:23.204Z,7.60
2023-02-04T02:35:21.634Z,7.20
2023-02-04T02:40:21.448Z,7.30
2023-02-04T02:45:24.795Z,7.20
2023-02-04T02:50:27.832Z,7.60
2023-02-04T02:55:28.800Z,7.20
2023-02-04T03:00:31.653Z,7.10
2023-02-04T03:05:33.746Z,7.10
2023-02-04T03:10:32.949Z,7.40
2023-02-04T03:15:33.787Z,7.20
2023-02-04T03:20:33.872Z,7.50
2023-02-04T03:25:32.433Z,7.20
2023-02-04T03:30:33.039Z,7.20
2023-02-04T03:35:31.856Z,7.20
2023-02-04T03:40:30.687Z,7.10
2023-02-04T03:45:37.465Z,7.10
2023-02-04T03:50:44.342Z,7.10
2023-02-04T03:55:42.870Z,7.10
2023-02-04T04:00:41.538Z,7.10
2023-02-04T04:05:39.718Z,7.10
2023-02-04T04:10:41.930Z,7.10
2023-02-04T04:15:40.598Z,7.30
2023-02-04T04:20:39.670Z,7.10
2023-02-04T04:25:39.682Z,7.10
2023-02-04T04:30:38.481Z,7.00
2023-02-04T04:35:37.045Z,7.00
2023-02-04T04:40:35.594Z,7.00
2023-02-04T04:45:35.766Z,7.00
2023-02-04T04:50:34.892Z,7.30
2023-02-04T04:55:33.858Z,7.00
2023-02-04T05:00:32.718Z,7.20
2023-02-04T05:05:32.868Z,7.10
2023-02-04T05:10:31.769Z,7.10
2023-02-04T05:15:30.404Z,7.10
2023-02-04T05:20:29.217Z,7.10
2023-02-04T05:25:29.922Z,7.20
2023-02-04T05:30:28.558Z,7.20
2023-02-04T05:35:27.109Z,7.50
2023-02-04T05:40:25.296Z,7.10
2023-02-04T05:45:25.201Z,7.20
2023-02-04T05:50:23.648Z,7.20
2023-02-04T05:55:22.121Z,7.20
2023-02-04T06:00:21.018Z,7.50
2023-02-04T06:05:20.860Z,7.20
2023-02-04T06:10:21.504Z,7.20
2023-02-04T06:15:20.873Z,7.10
2023-02-04T06:27:08.735Z,7.10
2023-02-04T06:32:07.417Z,7.50
2023-02-04T06:37:06.005Z,7.10
2023-02-04T06:42:04.531Z,7.30
2023-02-04T06:47:05.426Z,7.10
2023-02-04T06:52:03.954Z,7.10
2023-02-04T06:57:07.059Z,7.00
2023-02-04T07:02:08.128Z,7.00
2023-02-04T07:07:06.679Z,7.20
2023-02-04T07:12:06.009Z,6.80
2023-02-04T07:17:04.779Z,6.80
2023-02-04T07:22:04.788Z,7.10
2023-02-04T07:27:03.260Z,7.20
2023-02-04T07:32:01.922Z,6.80
2023-02-04T07:37:00.500Z,6.70
2023-02-04T07:42:00.382Z,7.00
2023-02-04T07:47:05.259Z,6.90
2023-02-04T07:52:03.709Z,6.70
2023-02-04T07:57:03.530Z,7.00
2023-02-04T08:02:02.507Z,6.60
2023-02-04T08:07:01.033Z,6.70
2023-02-04T08:12:00.393Z,6.60
2023-02-04T08:16:59.952Z,6.80
2023-02-04T08:21:58.460Z,6.70
2023-02-04T08:26:58.692Z,6.70
2023-02-04T08:31:57.229Z,6.70
2023-02-04T08:36:57.135Z,6.80
2023-02-04T08:41:55.332Z,6.80
2023-02-04T08:46:53.958Z,6.80
2023-02-04T08:51:52.560Z,6.50
2023-02-04T08:56:52.479Z,6.50
2023-02-04T09:01:52.807Z,6.70
2023-02-04T09:06:51.728Z,6.50
2023-02-04T09:11:51.646Z,6.30
2023-02-04T09:23:47.028Z,6.10
2023-02-04T09:28:48.275Z,6.00
2023-02-04T09:33:46.839Z,6.40
2023-02-04T09:38:45.697Z,6.40
2023-02-04T09:43:47.703Z,6.40
2023-02-04T09:48:45.959Z,6.80
2023-02-04T09:53:44.222Z,6.90
2023-02-04T09:58:43.794Z,7.40
2023-02-04T10:03:47.860Z,7.20
2023-02-04T10:08:47.892Z,7.30
2023-02-04T10:13:50.893Z,7.30
2023-02-04T10:18:51.100Z,7.50
2023-02-04T10:23:52.433Z,7.60
2023-02-04T10:28:51.027Z,7.90
2023-02-04T10:33:50.674Z,8.10
2023-02-04T10:39:01.447Z,8.20
2023-02-04T10:44:07.702Z,8.20
2023-02-04T10:49:18.125Z,8.20
2023-02-04T10:54:32.452Z,8.30
2023-02-04T10:59:30.832Z,8.40
2023-02-04T11:04:30.718Z,8.50
2023-02-04T11:09:29.276Z,8.50
2023-02-04T11:14:30.837Z,8.50
2023-02-04T11:19:39.144Z,8.50
2023-02-04T11:24:37.685Z,8.60
2023-02-04T11:29:39.073Z,8.60
2023-02-04T11:34:49.878Z,8.60
2023-02-04T11:39:50.410Z,8.60
2023-02-04T11:44:57.157Z,8.70
2023-02-04T11:49:59.589Z,8.80
2023-02-04T11:55:00.421Z,8.80
2023-02-04T12:00:01.131Z,8.80
2023-02-04T12:05:14.021Z,8.90
2023-02-04T12:10:15.881Z,9.00
2023-02-04T12:15:24.360Z,9.00
2023-02-04T12:20:24.228Z,9.10
2023-02-04T12:25:23.294Z,9.10
2023-02-04T12:30:22.087Z,9.00
2023-02-04T12:35:21.247Z,8.90
2023-02-04T12:40:22.994Z,8.90
2023-02-04T12:45:22.143Z,8.70
2023-02-04T12:50:22.961Z,8.80
2023-02-04T12:55:23.626Z,8.90
2023-02-04T13:00:23.558Z,9.00
2023-02-04T13:05:22.267Z,9.00
2023-02-04T13:10:24.351Z,9.00
2023-02-04T13:15:23.069Z,9.10
2023-02-04T13:20:21.846Z,9.10
2023-02-04T13:25:20.493Z,9.10
2023-02-04T13:30:20.684Z,9.20
2023-02-04T13:35:19.823Z,9.30
2023-02-04T13:40:18.884Z,9.30
2023-02-04T13:45:19.357Z,9.30
2023-02-04T13:50:19.655Z,9.30
2023-02-04T13:55:18.320Z,9.20
2023-02-04T14:00:17.321Z,9.30
2023-02-04T14:05:16.649Z,9.30
2023-02-04T14:10:18.448Z,9.30
2023-02-04T14:15:17.001Z,9.30
2023-02-04T14:27:08.055Z,9.20
2023-02-04T14:32:06.879Z,9.30
2023-02-04T14:37:05.576Z,9.20
2023-02-04T14:42:05.498Z,9.20
2023-02-04T14:47:03.991Z,9.20
2023-02-04T14:52:04.302Z,9.10
2023-02-04T14:57:02.526Z,9.00
2023-02-04T15:02:02.455Z,9.00
2023-02-04T15:07:01.222Z,9.00
2023-02-04T15:11:59.830Z,8.90
2023-02-04T15:16:58.456Z,8.90
2023-02-04T15:21:58.120Z,8.90
2023-02-04T15:26:56.855Z,8.80
2023-02-04T15:31:56.600Z,8.70
2023-02-04T15:36:55.149Z,8.50
2023-02-04T15:41:54.705Z,8.60
2023-02-04T15:46:54.318Z,8.50
2023-02-04T15:51:52.776Z,8.50
2023-02-04T15:56:51.274Z,8.50
2023-02-04T16:01:51.637Z,8.40
2023-02-04T16:06:58.214Z,8.30
2023-02-04T16:11:57.409Z,8.20
2023-02-04T16:16:56.930Z,8.10
2023-02-04T16:21:55.399Z,8.00
2023-02-04T16:26:54.078Z,8.00
2023-02-04T16:31:54.283Z,8.00
2023-02-04T16:36:54.167Z,8.10
2023-02-04T16:41:52.714Z,8.00
2023-02-04T16:46:51.546Z,8.00
2023-02-04T16:51:50.220Z,7.80
2023-02-04T16:56:50.101Z,7.80
2023-02-04T17:01:48.714Z,7.80
2023-02-04T17:06:47.261Z,7.80
2023-02-04T17:11:45.574Z,7.80
2023-02-04T17:16:46.460Z,7.70
2023-02-04T17:21:45.133Z,7.70
2023-02-04T17:26:43.627Z,7.70
2023-02-04T17:31:43.670Z,7.70
2023-02-04T17:36:43.618Z,7.70
2023-02-04T17:41:42.142Z,7.60
2023-02-04T17:46:40.351Z,7.60
2023-02-04T17:51:38.935Z,7.60
2023-02-04T17:56:38.813Z,7.60
2023-02-04T18:01:37.382Z,7.50
2023-02-04T18:06:36.724Z,7.40
2023-02-04T18:11:41.106Z,7.40
2023-02-04T18:16:41.899Z,7.40
2023-02-04T18:21:41.186Z,7.30
2023-02-04T18:26:45.579Z,7.20
2023-02-04T18:31:50.519Z,7.20
2023-02-04T18:36:49.532Z,7.20
2023-02-04T18:41:52.000Z,7.20
2023-02-04T18:46:51.105Z,7.10
2023-02-04T18:51:49.675Z,7.10
2023-02-04T18:56:49.744Z,7.10
2023-02-04T19:01:49.522Z,7.10
2023-02-04T19:06:50.058Z,7.00
2023-02-04T19:11:53.010Z,7.10
2023-02-04T19:16:53.071Z,7.00
2023-02-04T19:21:51.981Z,6.90
2023-02-04T19:26:57.044Z,6.70
2023-02-04T19:31:59.645Z,6.70
2023-02-04T19:36:58.257Z,7.10
2023-02-04T19:41:58.965Z,6.80
2023-02-04T19:46:59.399Z,7.10
2023-02-04T19:51:59.156Z,6.80
2023-02-04T19:56:58.932Z,6.80
2023-02-04T20:02:04.142Z,7.20
2023-02-04T20:07:03.310Z,6.80
2023-02-04T20:12:06.621Z,6.80
2023-02-04T20:17:27.785Z,6.80
2023-02-04T20:22:47.217Z,6.80
2023-02-04T20:27:49.310Z,6.90
2023-02-04T20:32:50.384Z,6.80
2023-02-04T20:37:53.946Z,6.80
2023-02-04T20:42:58.928Z,6.80
2023-02-04T20:48:01.007Z,6.80
2023-02-04T20:53:22.004Z,6.80
2023-02-04T20:58:24.316Z,6.70
2023-02-04T21:03:28.784Z,7.00
2023-02-04T21:08:45.410Z,6.70
2023-02-04T21:13:44.903Z,6.70
2023-02-04T21:18:43.354Z,6.70
2023-02-04T21:23:41.851Z,6.60
2023-02-04T21:28:40.327Z,6.50
2023-02-04T21:33:40.131Z,6.50
2023-02-04T21:38:38.626Z,6.70
2023-02-04T21:43:37.252Z,6.60
2023-02-04T21:48:35.480Z,6.50
2023-02-04T21:53:35.343Z,6.40
2023-02-04T21:58:33.961Z,6.30
2023-02-04T22:03:32.106Z,6.30
2023-02-04T22:08:30.603Z,6.30
2023-02-04T22:13:47.704Z,6.30
2023-02-04T22:18:45.841Z,6.30
2023-02-04T22:23:44.308Z,6.30
2023-02-04T22:28:44.172Z,6.30
2023-02-04T22:33:42.376Z,6.30
2023-02-04T22:38:43.502Z,6.50
2023-02-04T22:43:43.590Z,6.30
2023-02-04T22:49:07.886Z,6.20
2023-02-04T22:54:06.477Z,6.20
2023-02-04T22:59:06.454Z,6.10
2023-02-04T23:04:04.977Z,6.20
2023-02-04T23:09:03.201Z,6.00
2023-02-04T23:14:02.070Z,6.00
2023-02-04T23:19:02.302Z,6.00
2023-02-04T23:24:01.234Z,5.90
2023-02-04T23:34:19.362Z,5.80
2023-02-04T23:39:17.891Z,5.70
2023-02-04T23:44:16.710Z,5.70
2023-02-04T23:49:15.938Z,5.60
2023-02-04T23:54:15.863Z,5.60
2023-02-04T23:59:14.609Z,5.60
